sensor_id;sensor_type;location;lat;lon;timestamp;P1;durP1;ratioP1;P2;durP2;ratioP2
39218;SDS011;24934;52.752;6.964;2022-10-15T00:01:04;192.18;;;79.38;;
39218;SDS011;24934;52.752;6.964;2022-10-15T00:03:35;199.02;;;78.30;;
39218;SDS011;24934;52.752;6.964;2022-10-15T00:06:09;209.30;;;78.43;;
39218;SDS011;24934;52.752;6.964;2022-10-15T00:08:40;217.17;;;80.53;;
39218;SDS011;24934;52.752;6.964;2022-10-15T00:11:16;224.27;;;79.10;;
39218;SDS011;24934;52.752;6.964;2022-10-15T00:13:44;204.95;;;80.18;;
39218;SDS011;24934;52.752;6.964;2022-10-15T00:16:11;246.88;;;83.45;;
39218;SDS011;24934;52.752;6.964;2022-10-15T00:18:39;231.07;;;83.07;;
39218;SDS011;24934;52.752;6.964;2022-10-15T00:21:06;238.40;;;83.63;;
39218;SDS011;24934;52.752;6.964;2022-10-15T00:23:34;231.13;;;83.47;;
39218;SDS011;24934;52.752;6.964;2022-10-15T00:26:01;293.97;;;87.97;;
39218;SDS011;24934;52.752;6.964;2022-10-15T00:28:28;243.47;;;86.77;;
39218;SDS011;24934;52.752;6.964;2022-10-15T00:30:58;305.73;;;90.43;;
39218;SDS011;24934;52.752;6.964;2022-10-15T00:33:25;240.27;;;86.05;;
39218;SDS011;24934;52.752;6.964;2022-10-15T00:35:57;296.98;;;86.30;;
39218;SDS011;24934;52.752;6.964;2022-10-15T00:38:24;271.85;;;85.70;;
39218;SDS011;24934;52.752;6.964;2022-10-15T00:40:50;280.80;;;86.43;;
39218;SDS011;24934;52.752;6.964;2022-10-15T00:43:15;292.27;;;87.63;;
39218;SDS011;24934;52.752;6.964;2022-10-15T00:45:41;311.05;;;87.55;;
39218;SDS011;24934;52.752;6.964;2022-10-15T00:48:06;319.33;;;89.93;;
39218;SDS011;24934;52.752;6.964;2022-10-15T00:50:32;379.90;;;87.07;;
39218;SDS011;24934;52.752;6.964;2022-10-15T00:55:33;371.07;;;91.40;;
39218;SDS011;24934;52.752;6.964;2022-10-15T00:58:23;397.93;;;92.53;;
39218;SDS011;24934;52.752;6.964;2022-10-15T01:00:55;382.07;;;91.87;;
39218;SDS011;24934;52.752;6.964;2022-10-15T01:03:21;436.07;;;91.70;;
39218;SDS011;24934;52.752;6.964;2022-10-15T01:05:47;461.40;;;94.70;;
39218;SDS011;24934;52.752;6.964;2022-10-15T01:08:15;436.67;;;94.80;;
39218;SDS011;24934;52.752;6.964;2022-10-15T01:10:47;361.05;;;93.03;;
39218;SDS011;24934;52.752;6.964;2022-10-15T01:13:34;455.90;;;92.85;;
39218;SDS011;24934;52.752;6.964;2022-10-15T01:16:20;321.93;;;89.00;;
39218;SDS011;24934;52.752;6.964;2022-10-15T01:19:01;349.20;;;91.67;;
39218;SDS011;24934;52.752;6.964;2022-10-15T01:27:51;331.00;;;85.70;;
39218;SDS011;24934;52.752;6.964;2022-10-15T01:30:22;416.37;;;86.57;;
39218;SDS011;24934;52.752;6.964;2022-10-15T01:36:04;299.87;;;86.03;;
39218;SDS011;24934;52.752;6.964;2022-10-15T01:41:08;295.90;;;84.93;;
39218;SDS011;24934;52.752;6.964;2022-10-15T01:43:59;325.60;;;85.67;;
39218;SDS011;24934;52.752;6.964;2022-10-15T01:46:46;313.27;;;88.93;;
39218;SDS011;24934;52.752;6.964;2022-10-15T01:49:25;315.23;;;85.97;;
39218;SDS011;24934;52.752;6.964;2022-10-15T01:51:54;361.57;;;85.00;;
39218;SDS011;24934;52.752;6.964;2022-10-15T01:54:23;387.43;;;85.90;;
39218;SDS011;24934;52.752;6.964;2022-10-15T01:56:54;363.57;;;84.73;;
39218;SDS011;24934;52.752;6.964;2022-10-15T01:59:22;333.47;;;83.00;;
39218;SDS011;24934;52.752;6.964;2022-10-15T02:01:55;317.30;;;83.30;;
39218;SDS011;24934;52.752;6.964;2022-10-15T02:04:26;358.00;;;84.77;;
39218;SDS011;24934;52.752;6.964;2022-10-15T02:06:57;335.70;;;86.47;;
39218;SDS011;24934;52.752;6.964;2022-10-15T02:12:34;369.23;;;85.83;;
39218;SDS011;24934;52.752;6.964;2022-10-15T02:15:53;349.20;;;83.33;;
39218;SDS011;24934;52.752;6.964;2022-10-15T02:18:04;331.60;;;85.93;;
39218;SDS011;24934;52.752;6.964;2022-10-15T02:20:43;347.83;;;85.70;;
39218;SDS011;24934;52.752;6.964;2022-10-15T02:23:21;347.13;;;86.07;;
39218;SDS011;24934;52.752;6.964;2022-10-15T02:25:54;350.27;;;84.47;;
39218;SDS011;24934;52.752;6.964;2022-10-15T02:28:21;356.00;;;84.80;;
39218;SDS011;24934;52.752;6.964;2022-10-15T02:30:50;326.17;;;83.13;;
39218;SDS011;24934;52.752;6.964;2022-10-15T02:33:18;368.30;;;86.20;;
39218;SDS011;24934;52.752;6.964;2022-10-15T02:35:44;324.33;;;84.57;;
39218;SDS011;24934;52.752;6.964;2022-10-15T02:38:13;295.20;;;83.40;;
39218;SDS011;24934;52.752;6.964;2022-10-15T02:40:42;358.33;;;83.33;;
39218;SDS011;24934;52.752;6.964;2022-10-15T02:43:10;332.63;;;83.53;;
39218;SDS011;24934;52.752;6.964;2022-10-15T02:45:38;309.63;;;79.67;;
39218;SDS011;24934;52.752;6.964;2022-10-15T02:48:04;306.20;;;78.07;;
39218;SDS011;24934;52.752;6.964;2022-10-15T02:50:30;250.97;;;80.23;;
39218;SDS011;24934;52.752;6.964;2022-10-15T02:52:55;299.97;;;80.27;;
39218;SDS011;24934;52.752;6.964;2022-10-15T02:55:21;277.23;;;78.50;;
39218;SDS011;24934;52.752;6.964;2022-10-15T02:57:46;273.17;;;80.43;;
39218;SDS011;24934;52.752;6.964;2022-10-15T03:00:12;246.73;;;80.23;;
39218;SDS011;24934;52.752;6.964;2022-10-15T03:02:38;268.30;;;80.17;;
39218;SDS011;24934;52.752;6.964;2022-10-15T03:05:04;302.87;;;80.23;;
39218;SDS011;24934;52.752;6.964;2022-10-15T03:07:30;243.03;;;77.17;;
39218;SDS011;24934;52.752;6.964;2022-10-15T03:09:56;231.97;;;76.27;;
39218;SDS011;24934;52.752;6.964;2022-10-15T03:12:21;292.03;;;75.43;;
39218;SDS011;24934;52.752;6.964;2022-10-15T03:14:49;276.77;;;76.77;;
39218;SDS011;24934;52.752;6.964;2022-10-15T03:17:15;239.87;;;75.07;;
39218;SDS011;24934;52.752;6.964;2022-10-15T03:19:41;225.17;;;76.97;;
39218;SDS011;24934;52.752;6.964;2022-10-15T03:22:07;240.10;;;76.67;;
39218;SDS011;24934;52.752;6.964;2022-10-15T03:24:33;217.07;;;76.47;;
39218;SDS011;24934;52.752;6.964;2022-10-15T03:26:58;207.03;;;75.80;;
39218;SDS011;24934;52.752;6.964;2022-10-15T03:29:24;213.73;;;76.33;;
39218;SDS011;24934;52.752;6.964;2022-10-15T03:31:50;220.17;;;77.13;;
39218;SDS011;24934;52.752;6.964;2022-10-15T03:34:16;221.40;;;77.47;;
39218;SDS011;24934;52.752;6.964;2022-10-15T03:36:41;219.90;;;75.87;;
39218;SDS011;24934;52.752;6.964;2022-10-15T03:39:07;210.13;;;77.63;;
39218;SDS011;24934;52.752;6.964;2022-10-15T03:41:33;218.57;;;78.60;;
39218;SDS011;24934;52.752;6.964;2022-10-15T03:43:59;204.03;;;76.20;;
39218;SDS011;24934;52.752;6.964;2022-10-15T03:46:28;207.37;;;76.40;;
39218;SDS011;24934;52.752;6.964;2022-10-15T03:48:57;208.70;;;77.10;;
39218;SDS011;24934;52.752;6.964;2022-10-15T03:51:22;211.87;;;78.60;;
39218;SDS011;24934;52.752;6.964;2022-10-15T03:53:48;212.00;;;78.30;;
39218;SDS011;24934;52.752;6.964;2022-10-15T03:56:13;215.73;;;78.27;;
39218;SDS011;24934;52.752;6.964;2022-10-15T03:58:42;212.10;;;78.00;;
39218;SDS011;24934;52.752;6.964;2022-10-15T04:01:08;210.13;;;78.47;;
39218;SDS011;24934;52.752;6.964;2022-10-15T04:03:46;200.13;;;78.53;;
39218;SDS011;24934;52.752;6.964;2022-10-15T04:06:11;195.53;;;76.90;;
39218;SDS011;24934;52.752;6.964;2022-10-15T04:08:37;193.90;;;76.47;;
39218;SDS011;24934;52.752;6.964;2022-10-15T04:11:06;189.30;;;75.07;;
39218;SDS011;24934;52.752;6.964;2022-10-15T04:13:31;191.73;;;74.93;;
39218;SDS011;24934;52.752;6.964;2022-10-15T04:15:57;195.40;;;76.87;;
39218;SDS011;24934;52.752;6.964;2022-10-15T04:18:22;186.80;;;75.97;;
39218;SDS011;24934;52.752;6.964;2022-10-15T04:20:48;177.30;;;75.03;;
39218;SDS011;24934;52.752;6.964;2022-10-15T04:23:14;175.83;;;74.97;;
39218;SDS011;24934;52.752;6.964;2022-10-15T04:25:40;174.33;;;77.13;;
39218;SDS011;24934;52.752;6.964;2022-10-15T04:28:06;175.27;;;75.83;;
39218;SDS011;24934;52.752;6.964;2022-10-15T04:30:32;168.57;;;74.10;;
39218;SDS011;24934;52.752;6.964;2022-10-15T04:32:58;164.33;;;73.10;;
39218;SDS011;24934;52.752;6.964;2022-10-15T04:35:23;170.73;;;73.17;;
39218;SDS011;24934;52.752;6.964;2022-10-15T04:37:49;163.30;;;71.73;;
39218;SDS011;24934;52.752;6.964;2022-10-15T04:40:18;148.07;;;68.83;;
39218;SDS011;24934;52.752;6.964;2022-10-15T04:42:47;159.30;;;73.80;;
39218;SDS011;24934;52.752;6.964;2022-10-15T04:45:12;154.13;;;71.30;;
39218;SDS011;24934;52.752;6.964;2022-10-15T04:47:38;157.60;;;70.97;;
39218;SDS011;24934;52.752;6.964;2022-10-15T04:50:03;168.93;;;72.37;;
39218;SDS011;24934;52.752;6.964;2022-10-15T04:52:34;152.47;;;70.50;;
39218;SDS011;24934;52.752;6.964;2022-10-15T04:55:00;163.83;;;70.63;;
39218;SDS011;24934;52.752;6.964;2022-10-15T04:57:28;159.97;;;73.43;;
39218;SDS011;24934;52.752;6.964;2022-10-15T04:59:54;159.17;;;69.60;;
39218;SDS011;24934;52.752;6.964;2022-10-15T05:02:20;163.43;;;72.60;;
39218;SDS011;24934;52.752;6.964;2022-10-15T05:04:51;165.53;;;75.73;;
39218;SDS011;24934;52.752;6.964;2022-10-15T05:07:17;163.57;;;73.90;;
39218;SDS011;24934;52.752;6.964;2022-10-15T05:09:45;161.10;;;74.87;;
39218;SDS011;24934;52.752;6.964;2022-10-15T05:12:11;165.23;;;72.97;;
39218;SDS011;24934;52.752;6.964;2022-10-15T05:14:36;165.70;;;72.40;;
39218;SDS011;24934;52.752;6.964;2022-10-15T05:17:02;166.47;;;73.57;;
39218;SDS011;24934;52.752;6.964;2022-10-15T05:19:28;172.47;;;72.93;;
39218;SDS011;24934;52.752;6.964;2022-10-15T05:21:53;173.17;;;75.00;;
39218;SDS011;24934;52.752;6.964;2022-10-15T05:24:19;169.17;;;73.60;;
39218;SDS011;24934;52.752;6.964;2022-10-15T05:26:44;176.97;;;74.90;;
39218;SDS011;24934;52.752;6.964;2022-10-15T05:29:10;168.87;;;75.13;;
39218;SDS011;24934;52.752;6.964;2022-10-15T05:31:35;163.43;;;73.60;;
39218;SDS011;24934;52.752;6.964;2022-10-15T05:34:04;176.57;;;74.80;;
39218;SDS011;24934;52.752;6.964;2022-10-15T05:36:32;172.13;;;74.90;;
39218;SDS011;24934;52.752;6.964;2022-10-15T05:39:00;166.40;;;74.30;;
39218;SDS011;24934;52.752;6.964;2022-10-15T05:41:29;180.90;;;73.27;;
39218;SDS011;24934;52.752;6.964;2022-10-15T05:43:55;177.47;;;75.07;;
39218;SDS011;24934;52.752;6.964;2022-10-15T05:46:22;184.63;;;75.77;;
39218;SDS011;24934;52.752;6.964;2022-10-15T05:48:48;196.77;;;75.83;;
39218;SDS011;24934;52.752;6.964;2022-10-15T05:51:15;170.17;;;73.30;;
39218;SDS011;24934;52.752;6.964;2022-10-15T05:53:41;185.20;;;77.30;;
39218;SDS011;24934;52.752;6.964;2022-10-15T05:56:07;176.47;;;76.73;;
39218;SDS011;24934;52.752;6.964;2022-10-15T05:58:34;189.40;;;78.87;;
39218;SDS011;24934;52.752;6.964;2022-10-15T06:01:01;185.30;;;77.40;;
39218;SDS011;24934;52.752;6.964;2022-10-15T06:03:28;194.67;;;77.97;;
39218;SDS011;24934;52.752;6.964;2022-10-15T06:06:00;187.83;;;78.10;;
39218;SDS011;24934;52.752;6.964;2022-10-15T06:08:27;204.17;;;80.83;;
39218;SDS011;24934;52.752;6.964;2022-10-15T06:10:53;179.40;;;77.70;;
39218;SDS011;24934;52.752;6.964;2022-10-15T06:13:20;181.17;;;78.23;;
39218;SDS011;24934;52.752;6.964;2022-10-15T06:15:46;184.27;;;78.30;;
39218;SDS011;24934;52.752;6.964;2022-10-15T06:18:12;193.43;;;78.97;;
39218;SDS011;24934;52.752;6.964;2022-10-15T06:20:40;195.07;;;78.87;;
39218;SDS011;24934;52.752;6.964;2022-10-15T06:23:08;189.80;;;77.37;;
39218;SDS011;24934;52.752;6.964;2022-10-15T06:25:35;185.87;;;77.53;;
39218;SDS011;24934;52.752;6.964;2022-10-15T06:28:01;191.20;;;79.20;;
39218;SDS011;24934;52.752;6.964;2022-10-15T06:30:28;195.30;;;79.63;;
39218;SDS011;24934;52.752;6.964;2022-10-15T06:32:54;188.43;;;81.37;;
39218;SDS011;24934;52.752;6.964;2022-10-15T06:35:20;193.00;;;78.77;;
39218;SDS011;24934;52.752;6.964;2022-10-15T06:37:46;198.93;;;79.90;;
39218;SDS011;24934;52.752;6.964;2022-10-15T06:40:13;200.10;;;80.20;;
39218;SDS011;24934;52.752;6.964;2022-10-15T06:42:39;185.43;;;80.53;;
39218;SDS011;24934;52.752;6.964;2022-10-15T06:45:06;188.23;;;79.77;;
39218;SDS011;24934;52.752;6.964;2022-10-15T06:47:34;180.00;;;78.90;;
39218;SDS011;24934;52.752;6.964;2022-10-15T06:50:01;176.40;;;81.50;;
39218;SDS011;24934;52.752;6.964;2022-10-15T06:52:28;185.87;;;81.03;;
39218;SDS011;24934;52.752;6.964;2022-10-15T06:54:53;186.77;;;81.60;;
39218;SDS011;24934;52.752;6.964;2022-10-15T06:57:19;175.07;;;80.27;;
39218;SDS011;24934;52.752;6.964;2022-10-15T06:59:45;178.17;;;83.67;;
39218;SDS011;24934;52.752;6.964;2022-10-15T07:02:11;183.73;;;84.20;;
39218;SDS011;24934;52.752;6.964;2022-10-15T07:04:38;182.63;;;83.83;;
39218;SDS011;24934;52.752;6.964;2022-10-15T07:07:03;173.83;;;84.17;;
39218;SDS011;24934;52.752;6.964;2022-10-15T07:09:35;178.80;;;83.67;;
39218;SDS011;24934;52.752;6.964;2022-10-15T07:12:01;164.87;;;82.50;;
39218;SDS011;24934;52.752;6.964;2022-10-15T07:14:27;158.13;;;80.70;;
39218;SDS011;24934;52.752;6.964;2022-10-15T07:16:52;160.43;;;81.50;;
39218;SDS011;24934;52.752;6.964;2022-10-15T07:19:21;164.73;;;80.73;;
39218;SDS011;24934;52.752;6.964;2022-10-15T07:21:47;150.83;;;77.63;;
39218;SDS011;24934;52.752;6.964;2022-10-15T07:24:12;155.70;;;79.37;;
39218;SDS011;24934;52.752;6.964;2022-10-15T07:26:41;154.37;;;78.20;;
39218;SDS011;24934;52.752;6.964;2022-10-15T07:29:06;147.57;;;77.13;;
39218;SDS011;24934;52.752;6.964;2022-10-15T07:31:32;144.53;;;76.33;;
39218;SDS011;24934;52.752;6.964;2022-10-15T07:33:58;141.60;;;76.03;;
39218;SDS011;24934;52.752;6.964;2022-10-15T07:36:24;142.77;;;77.90;;
39218;SDS011;24934;52.752;6.964;2022-10-15T07:38:53;143.57;;;77.77;;
39218;SDS011;24934;52.752;6.964;2022-10-15T07:41:26;147.40;;;78.00;;
39218;SDS011;24934;52.752;6.964;2022-10-15T07:43:52;131.55;;;73.60;;
39218;SDS011;24934;52.752;6.964;2022-10-15T07:46:17;109.32;;;65.88;;
39218;SDS011;24934;52.752;6.964;2022-10-15T07:48:43;89.22;;;60.78;;
39218;SDS011;24934;52.752;6.964;2022-10-15T07:51:09;78.13;;;55.92;;
39218;SDS011;24934;52.752;6.964;2022-10-15T07:53:35;75.53;;;54.38;;
39218;SDS011;24934;52.752;6.964;2022-10-15T07:56:02;64.85;;;52.03;;
39218;SDS011;24934;52.752;6.964;2022-10-15T07:58:30;61.85;;;50.53;;
39218;SDS011;24934;52.752;6.964;2022-10-15T08:01:00;60.88;;;49.83;;
39218;SDS011;24934;52.752;6.964;2022-10-15T08:03:27;60.30;;;47.45;;
39218;SDS011;24934;52.752;6.964;2022-10-15T08:05:54;58.97;;;48.92;;
39218;SDS011;24934;52.752;6.964;2022-10-15T08:08:20;55.63;;;47.83;;
39218;SDS011;24934;52.752;6.964;2022-10-15T08:10:46;61.80;;;49.60;;
39218;SDS011;24934;52.752;6.964;2022-10-15T08:13:12;60.85;;;49.72;;
39218;SDS011;24934;52.752;6.964;2022-10-15T08:15:38;62.80;;;49.75;;
39218;SDS011;24934;52.752;6.964;2022-10-15T08:18:04;63.42;;;49.30;;
39218;SDS011;24934;52.752;6.964;2022-10-15T08:20:30;64.07;;;51.10;;
39218;SDS011;24934;52.752;6.964;2022-10-15T08:22:56;70.05;;;51.88;;
39218;SDS011;24934;52.752;6.964;2022-10-15T08:25:22;66.15;;;50.85;;
39218;SDS011;24934;52.752;6.964;2022-10-15T08:27:51;67.32;;;51.60;;
39218;SDS011;24934;52.752;6.964;2022-10-15T08:30:17;70.45;;;50.97;;
39218;SDS011;24934;52.752;6.964;2022-10-15T08:32:50;70.85;;;54.13;;
39218;SDS011;24934;52.752;6.964;2022-10-15T08:35:16;69.63;;;54.90;;
39218;SDS011;24934;52.752;6.964;2022-10-15T08:37:41;72.05;;;54.78;;
39218;SDS011;24934;52.752;6.964;2022-10-15T08:40:08;73.22;;;56.38;;
39218;SDS011;24934;52.752;6.964;2022-10-15T08:42:37;77.72;;;57.55;;
39218;SDS011;24934;52.752;6.964;2022-10-15T08:45:18;81.10;;;58.63;;
39218;SDS011;24934;52.752;6.964;2022-10-15T08:48:03;82.40;;;58.13;;
39218;SDS011;24934;52.752;6.964;2022-10-15T08:53:11;85.55;;;59.70;;
39218;SDS011;24934;52.752;6.964;2022-10-15T08:55:41;82.57;;;58.97;;
39218;SDS011;24934;52.752;6.964;2022-10-15T08:58:12;86.82;;;61.15;;
39218;SDS011;24934;52.752;6.964;2022-10-15T09:01:03;83.45;;;58.38;;
39218;SDS011;24934;52.752;6.964;2022-10-15T09:06:40;82.60;;;57.72;;
39218;SDS011;24934;52.752;6.964;2022-10-15T09:09:24;76.68;;;54.85;;
39218;SDS011;24934;52.752;6.964;2022-10-15T09:11:58;85.50;;;56.70;;
39218;SDS011;24934;52.752;6.964;2022-10-15T09:14:27;77.38;;;55.03;;
39218;SDS011;24934;52.752;6.964;2022-10-15T09:17:00;84.82;;;57.17;;
39218;SDS011;24934;52.752;6.964;2022-10-15T09:19:31;86.18;;;57.45;;
39218;SDS011;24934;52.752;6.964;2022-10-15T09:22:02;86.80;;;56.28;;
39218;SDS011;24934;52.752;6.964;2022-10-15T09:24:28;83.47;;;56.00;;
39218;SDS011;24934;52.752;6.964;2022-10-15T09:29:30;87.25;;;57.85;;
39218;SDS011;24934;52.752;6.964;2022-10-15T09:35:14;86.72;;;57.47;;
39218;SDS011;24934;52.752;6.964;2022-10-15T09:43:21;88.72;;;56.53;;
39218;SDS011;24934;52.752;6.964;2022-10-15T09:45:55;82.55;;;55.10;;
39218;SDS011;24934;52.752;6.964;2022-10-15T09:48:21;84.05;;;54.90;;
39218;SDS011;24934;52.752;6.964;2022-10-15T09:50:54;85.38;;;55.65;;
39218;SDS011;24934;52.752;6.964;2022-10-15T09:53:46;84.40;;;54.83;;
39218;SDS011;24934;52.752;6.964;2022-10-15T09:56:38;74.93;;;51.40;;
39218;SDS011;24934;52.752;6.964;2022-10-15T09:59:18;75.43;;;51.80;;
39218;SDS011;24934;52.752;6.964;2022-10-15T10:01:58;77.25;;;53.15;;
39218;SDS011;24934;52.752;6.964;2022-10-15T10:04:39;79.10;;;53.28;;
39218;SDS011;24934;52.752;6.964;2022-10-15T10:07:05;77.35;;;55.00;;
39218;SDS011;24934;52.752;6.964;2022-10-15T10:09:36;79.90;;;52.35;;
39218;SDS011;24934;52.752;6.964;2022-10-15T10:12:16;69.72;;;50.92;;
39218;SDS011;24934;52.752;6.964;2022-10-15T10:14:52;67.68;;;49.92;;
39218;SDS011;24934;52.752;6.964;2022-10-15T10:17:26;61.92;;;47.53;;
39218;SDS011;24934;52.752;6.964;2022-10-15T10:22:55;59.88;;;46.55;;
39218;SDS011;24934;52.752;6.964;2022-10-15T10:28:05;50.17;;;41.38;;
39218;SDS011;24934;52.752;6.964;2022-10-15T10:30:50;47.38;;;38.97;;
39218;SDS011;24934;52.752;6.964;2022-10-15T10:36:06;45.70;;;37.65;;
39218;SDS011;24934;52.752;6.964;2022-10-15T10:38:53;45.33;;;37.65;;
39218;SDS011;24934;52.752;6.964;2022-10-15T10:41:50;42.28;;;36.70;;
39218;SDS011;24934;52.752;6.964;2022-10-15T10:44:25;42.45;;;37.28;;
39218;SDS011;24934;52.752;6.964;2022-10-15T10:49:47;38.17;;;33.50;;
39218;SDS011;24934;52.752;6.964;2022-10-15T10:52:18;36.22;;;32.15;;
39218;SDS011;24934;52.752;6.964;2022-10-15T10:54:56;35.60;;;31.73;;
39218;SDS011;24934;52.752;6.964;2022-10-15T10:57:25;33.25;;;29.48;;
39218;SDS011;24934;52.752;6.964;2022-10-15T11:00:20;31.90;;;28.65;;
39218;SDS011;24934;52.752;6.964;2022-10-15T11:03:11;33.22;;;29.77;;
39218;SDS011;24934;52.752;6.964;2022-10-15T11:17:18;34.97;;;29.52;;
39218;SDS011;24934;52.752;6.964;2022-10-15T11:19:54;31.27;;;28.08;;
39218;SDS011;24934;52.752;6.964;2022-10-15T11:30:43;29.17;;;26.27;;
39218;SDS011;24934;52.752;6.964;2022-10-15T11:35:56;29.13;;;25.40;;
39218;SDS011;24934;52.752;6.964;2022-10-15T11:38:27;28.20;;;25.30;;
39218;SDS011;24934;52.752;6.964;2022-10-15T11:41:04;26.35;;;23.75;;
39218;SDS011;24934;52.752;6.964;2022-10-15T11:44:28;26.05;;;23.42;;
39218;SDS011;24934;52.752;6.964;2022-10-15T11:52:46;29.98;;;26.80;;
39218;SDS011;24934;52.752;6.964;2022-10-15T11:58:13;30.33;;;27.30;;
39218;SDS011;24934;52.752;6.964;2022-10-15T12:01:09;30.50;;;27.30;;
39218;SDS011;24934;52.752;6.964;2022-10-15T12:03:49;32.72;;;29.17;;
39218;SDS011;24934;52.752;6.964;2022-10-15T12:06:25;32.72;;;29.27;;
39218;SDS011;24934;52.752;6.964;2022-10-15T12:08:54;32.35;;;28.90;;
39218;SDS011;24934;52.752;6.964;2022-10-15T12:14:27;31.75;;;28.30;;
39218;SDS011;24934;52.752;6.964;2022-10-15T12:19:39;32.80;;;29.15;;
39218;SDS011;24934;52.752;6.964;2022-10-15T12:22:11;33.83;;;30.27;;
39218;SDS011;24934;52.752;6.964;2022-10-15T12:27:23;36.30;;;32.13;;
39218;SDS011;24934;52.752;6.964;2022-10-15T12:32:41;37.85;;;32.58;;
39218;SDS011;24934;52.752;6.964;2022-10-15T12:37:44;42.40;;;36.88;;
39218;SDS011;24934;52.752;6.964;2022-10-15T12:42:50;45.22;;;38.65;;
39218;SDS011;24934;52.752;6.964;2022-10-15T12:45:21;44.72;;;38.90;;
39218;SDS011;24934;52.752;6.964;2022-10-15T12:47:52;45.10;;;39.72;;
39218;SDS011;24934;52.752;6.964;2022-10-15T12:50:26;48.67;;;41.88;;
39218;SDS011;24934;52.752;6.964;2022-10-15T12:53:00;51.40;;;44.92;;
39218;SDS011;24934;52.752;6.964;2022-10-15T12:55:29;51.55;;;44.33;;
39218;SDS011;24934;52.752;6.964;2022-10-15T13:03:59;55.30;;;47.60;;
39218;SDS011;24934;52.752;6.964;2022-10-15T13:06:25;57.70;;;48.70;;
39218;SDS011;24934;52.752;6.964;2022-10-15T13:09:03;60.22;;;50.17;;
39218;SDS011;24934;52.752;6.964;2022-10-15T13:11:48;65.75;;;50.83;;
39218;SDS011;24934;52.752;6.964;2022-10-15T13:16:51;63.05;;;52.22;;
39218;SDS011;24934;52.752;6.964;2022-10-15T13:19:18;60.20;;;51.80;;
39218;SDS011;24934;52.752;6.964;2022-10-15T13:21:53;63.45;;;51.90;;
39218;SDS011;24934;52.752;6.964;2022-10-15T13:24:22;58.70;;;51.00;;
39218;SDS011;24934;52.752;6.964;2022-10-15T13:26:50;58.55;;;51.58;;
39218;SDS011;24934;52.752;6.964;2022-10-15T13:29:18;61.47;;;52.50;;
39218;SDS011;24934;52.752;6.964;2022-10-15T13:31:46;59.20;;;51.97;;
39218;SDS011;24934;52.752;6.964;2022-10-15T13:36:58;57.95;;;51.72;;
39218;SDS011;24934;52.752;6.964;2022-10-15T13:39:27;56.97;;;50.55;;
39218;SDS011;24934;52.752;6.964;2022-10-15T13:42:05;56.33;;;50.22;;
39218;SDS011;24934;52.752;6.964;2022-10-15T13:44:33;57.50;;;51.13;;
39218;SDS011;24934;52.752;6.964;2022-10-15T13:46:59;56.50;;;49.80;;
39218;SDS011;24934;52.752;6.964;2022-10-15T13:49:25;55.80;;;49.90;;
39218;SDS011;24934;52.752;6.964;2022-10-15T13:51:51;56.75;;;50.55;;
39218;SDS011;24934;52.752;6.964;2022-10-15T13:54:21;54.53;;;48.83;;
39218;SDS011;24934;52.752;6.964;2022-10-15T13:56:52;52.22;;;46.72;;
39218;SDS011;24934;52.752;6.964;2022-10-15T13:59:21;54.63;;;48.92;;
39218;SDS011;24934;52.752;6.964;2022-10-15T14:01:50;51.97;;;46.88;;
39218;SDS011;24934;52.752;6.964;2022-10-15T14:04:20;54.50;;;48.80;;
39218;SDS011;24934;52.752;6.964;2022-10-15T14:06:54;57.00;;;51.20;;
39218;SDS011;24934;52.752;6.964;2022-10-15T14:11:57;54.17;;;48.58;;
39218;SDS011;24934;52.752;6.964;2022-10-15T14:16:52;50.05;;;45.42;;
39218;SDS011;24934;52.752;6.964;2022-10-15T14:19:20;50.13;;;45.47;;
39218;SDS011;24934;52.752;6.964;2022-10-15T14:21:51;47.92;;;43.63;;
39218;SDS011;24934;52.752;6.964;2022-10-15T14:24:35;47.28;;;42.85;;
39218;SDS011;24934;52.752;6.964;2022-10-15T14:27:03;47.28;;;42.90;;
39218;SDS011;24934;52.752;6.964;2022-10-15T14:29:40;45.00;;;41.10;;
39218;SDS011;24934;52.752;6.964;2022-10-15T14:38:14;43.95;;;40.13;;
39218;SDS011;24934;52.752;6.964;2022-10-15T14:40:54;41.97;;;38.38;;
39218;SDS011;24934;52.752;6.964;2022-10-15T14:43:27;40.22;;;36.83;;
39218;SDS011;24934;52.752;6.964;2022-10-15T14:45:57;39.78;;;36.42;;
39218;SDS011;24934;52.752;6.964;2022-10-15T14:48:25;39.88;;;36.58;;
39218;SDS011;24934;52.752;6.964;2022-10-15T14:50:56;39.15;;;35.75;;
39218;SDS011;24934;52.752;6.964;2022-10-15T14:53:24;38.67;;;35.38;;
39218;SDS011;24934;52.752;6.964;2022-10-15T14:55:56;37.58;;;34.47;;
39218;SDS011;24934;52.752;6.964;2022-10-15T14:58:27;36.55;;;33.45;;
39218;SDS011;24934;52.752;6.964;2022-10-15T15:00:59;34.15;;;31.13;;
39218;SDS011;24934;52.752;6.964;2022-10-15T15:03:34;34.92;;;32.13;;
39218;SDS011;24934;52.752;6.964;2022-10-15T15:06:07;33.95;;;31.15;;
39218;SDS011;24934;52.752;6.964;2022-10-15T15:08:33;32.13;;;29.45;;
39218;SDS011;24934;52.752;6.964;2022-10-15T15:11:00;31.52;;;28.92;;
39218;SDS011;24934;52.752;6.964;2022-10-15T15:13:31;31.42;;;28.77;;
39218;SDS011;24934;52.752;6.964;2022-10-15T15:16:02;30.10;;;27.70;;
39218;SDS011;24934;52.752;6.964;2022-10-15T15:18:28;31.08;;;28.42;;
39218;SDS011;24934;52.752;6.964;2022-10-15T15:20:53;29.35;;;26.95;;
39218;SDS011;24934;52.752;6.964;2022-10-15T15:23:24;28.45;;;26.15;;
39218;SDS011;24934;52.752;6.964;2022-10-15T15:25:52;27.52;;;25.40;;
39218;SDS011;24934;52.752;6.964;2022-10-15T15:28:19;28.92;;;26.58;;
39218;SDS011;24934;52.752;6.964;2022-10-15T15:30:50;29.95;;;27.50;;
39218;SDS011;24934;52.752;6.964;2022-10-15T15:33:24;30.02;;;27.52;;
39218;SDS011;24934;52.752;6.964;2022-10-15T15:35:51;29.30;;;26.90;;
39218;SDS011;24934;52.752;6.964;2022-10-15T15:38:20;28.75;;;26.55;;
39218;SDS011;24934;52.752;6.964;2022-10-15T15:40:47;29.73;;;27.23;;
39218;SDS011;24934;52.752;6.964;2022-10-15T15:43:14;28.67;;;26.23;;
39218;SDS011;24934;52.752;6.964;2022-10-15T15:45:41;29.50;;;27.00;;
39218;SDS011;24934;52.752;6.964;2022-10-15T15:48:10;29.35;;;26.95;;
39218;SDS011;24934;52.752;6.964;2022-10-15T15:50:36;28.98;;;26.60;;
39218;SDS011;24934;52.752;6.964;2022-10-15T15:53:02;30.25;;;27.77;;
39218;SDS011;24934;52.752;6.964;2022-10-15T15:55:28;28.30;;;25.95;;
39218;SDS011;24934;52.752;6.964;2022-10-15T15:57:53;28.90;;;26.60;;
39218;SDS011;24934;52.752;6.964;2022-10-15T16:00:19;28.42;;;26.13;;
39218;SDS011;24934;52.752;6.964;2022-10-15T16:02:44;29.98;;;27.58;;
39218;SDS011;24934;52.752;6.964;2022-10-15T16:05:13;29.67;;;27.25;;
39218;SDS011;24934;52.752;6.964;2022-10-15T16:07:40;31.33;;;28.83;;
39218;SDS011;24934;52.752;6.964;2022-10-15T16:10:07;29.83;;;27.42;;
39218;SDS011;24934;52.752;6.964;2022-10-15T16:12:35;30.20;;;27.60;;
39218;SDS011;24934;52.752;6.964;2022-10-15T16:15:01;31.17;;;28.67;;
39218;SDS011;24934;52.752;6.964;2022-10-15T16:17:27;31.35;;;28.65;;
39218;SDS011;24934;52.752;6.964;2022-10-15T16:19:52;30.67;;;28.08;;
39218;SDS011;24934;52.752;6.964;2022-10-15T16:22:18;30.77;;;28.13;;
39218;SDS011;24934;52.752;6.964;2022-10-15T16:24:44;30.25;;;27.73;;
39218;SDS011;24934;52.752;6.964;2022-10-15T16:27:12;31.45;;;28.77;;